Time;durP1;ratioP1;P1;durP2;ratioP2;P2;SDS_P1;SDS_P2;PMS_P1;PMS_P2;Temp;Humidity;BMP_temperature;BMP_pressure;BME280_temperature;BME280_humidity;BME280_pressure;Samples;Min_cycle;Max_cycle;Signal;HPM_P1;HPM_P2
2022/03/11 00:02:07;;;;;;;11.65;7.60;;;5.10;99.90;;;;;;5094893;28;20495;-73
2022/03/11 00:04:33;;;;;;;12.55;7.53;;;5.10;99.90;;;;;;5094742;28;20391;-74
2022/03/11 00:06:59;;;;;;;11.90;7.63;;;5.00;99.90;;;;;;5094768;28;20044;-74
2022/03/11 00:09:24;;;;;;;12.95;7.68;;;5.00;99.90;;;;;;5095118;28;20055;-74
2022/03/11 00:11:50;;;;;;;12.50;7.38;;;5.00;99.90;;;;;;5093521;28;20040;-73
2022/03/11 00:14:15;;;;;;;11.57;7.43;;;4.90;99.90;;;;;;5094846;28;20118;-74
2022/03/11 00:16:41;;;;;;;12.35;7.40;;;4.90;99.90;;;;;;5094671;28;20059;-74
2022/03/11 00:19:07;;;;;;;12.75;7.07;;;4.90;99.90;;;;;;5077003;28;20036;-73
2022/03/11 00:21:32;;;;;;;12.77;7.15;;;4.80;99.90;;;;;;5096966;28;20069;-73
2022/03/11 00:23:58;;;;;;;14.45;7.28;;;4.80;99.90;;;;;;5094427;28;20139;-73
2022/03/11 00:26:24;;;;;;;13.00;7.60;;;4.70;99.90;;;;;;5094456;28;20089;-73
2022/03/11 00:28:50;;;;;;;12.80;7.15;;;4.70;99.90;;;;;;5094025;28;20040;-74
2022/03/11 00:31:15;;;;;;;12.85;7.35;;;4.60;99.90;;;;;;5093369;28;20040;-73
2022/03/11 00:33:41;;;;;;;11.43;7.28;;;4.50;99.90;;;;;;5094388;28;20377;-73
2022/03/11 00:36:07;;;;;;;12.02;7.15;;;4.50;99.90;;;;;;5094509;28;20044;-74
2022/03/11 00:38:33;;;;;;;13.77;7.88;;;4.40;99.90;;;;;;5093212;28;20047;-73
2022/03/11 00:40:59;;;;;;;12.48;7.35;;;4.40;99.90;;;;;;5094297;28;20046;-73
2022/03/11 00:43:25;;;;;;;12.07;7.13;;;4.30;99.90;;;;;;5094235;28;20123;-73
2022/03/11 00:45:52;;;;;;;14.48;7.20;;;4.30;99.90;;;;;;5093329;28;20056;-74
2022/03/11 00:48:18;;;;;;;11.85;7.38;;;4.30;99.90;;;;;;5094091;28;20040;-73
2022/03/11 00:50:44;;;;;;;12.10;6.88;;;4.20;99.90;;;;;;5093985;28;20046;-74
2022/03/11 00:53:09;;;;;;;11.02;7.00;;;4.10;99.90;;;;;;5092763;28;20055;-73
2022/03/11 00:55:35;;;;;;;15.63;7.22;;;4.10;99.90;;;;;;5093923;28;20122;-73
2022/03/11 00:58:00;;;;;;;11.65;6.90;;;4.10;99.90;;;;;;5093845;28;20089;-73
2022/03/11 01:00:26;;;;;;;11.30;7.03;;;4.10;99.90;;;;;;5093710;28;20131;-73
2022/03/11 01:02:52;;;;;;;13.95;6.60;;;4.00;99.90;;;;;;5093461;28;20035;-73
2022/03/11 01:05:19;;;;;;;11.00;6.60;;;4.00;99.90;;;;;;5093584;28;20541;-73
2022/03/11 01:07:44;;;;;;;12.60;7.10;;;4.00;99.90;;;;;;5093555;28;20093;-73
2022/03/11 01:10:10;;;;;;;15.07;7.18;;;4.00;99.90;;;;;;5093772;28;20040;-74
2022/03/11 01:12:37;;;;;;;12.63;6.97;;;4.00;99.90;;;;;;5092428;28;20079;-73
2022/03/11 01:15:03;;;;;;;14.30;6.68;;;4.00;99.90;;;;;;5093755;28;20405;-73
2022/03/11 01:17:29;;;;;;;12.10;7.05;;;4.00;99.90;;;;;;5093690;28;20093;-74
2022/03/11 01:19:54;;;;;;;11.73;6.93;;;4.00;99.90;;;;;;5092459;28;20134;-73
2022/03/11 01:22:20;;;;;;;12.38;7.07;;;4.00;99.90;;;;;;5094023;28;20044;-73
2022/03/11 01:24:46;;;;;;;13.25;7.80;;;4.00;99.90;;;;;;5093679;28;20074;-73
2022/03/11 01:27:11;;;;;;;13.48;7.40;;;4.00;99.90;;;;;;5093634;28;20443;-73
2022/03/11 01:29:37;;;;;;;15.35;7.22;;;4.00;99.90;;;;;;5092660;28;20162;-73
2022/03/11 01:32:03;;;;;;;16.25;7.30;;;4.00;99.90;;;;;;5093437;28;20040;-73
2022/03/11 01:34:29;;;;;;;15.73;7.47;;;3.90;99.90;;;;;;5093490;28;20040;-73
2022/03/11 01:36:54;;;;;;;12.20;6.90;;;4.00;99.90;;;;;;5093510;28;20370;-73
2022/03/11 01:39:20;;;;;;;12.15;7.43;;;4.00;99.90;;;;;;5093587;28;20040;-73
2022/03/11 01:41:46;;;;;;;13.82;7.45;;;4.00;99.90;;;;;;5093222;28;20078;-73
2022/03/11 01:44:11;;;;;;;12.50;7.50;;;4.00;99.90;;;;;;5092525;28;20396;-74
2022/03/11 01:46:38;;;;;;;11.90;6.90;;;4.00;99.90;;;;;;5092164;28;20396;-74
2022/03/11 01:49:06;;;;;;;15.55;7.68;;;4.10;99.90;;;;;;5092476;28;20108;-73
2022/03/11 01:51:33;;;;;;;10.85;6.90;;;3.90;99.90;;;;;;5093255;28;20047;-73
2022/03/11 01:53:59;;;;;;;;;;;3.90;99.90;;;;;;5094172;28;20399;-73
2022/03/11 01:56:26;;;;;;;13.45;7.75;;;3.90;99.90;;;;;;5092390;28;20016;-73
2022/03/11 01:58:53;;;;;;;14.75;8.07;;;3.90;99.90;;;;;;5093433;28;20044;-73
2022/03/11 02:01:20;;;;;;;13.90;7.93;;;3.80;99.90;;;;;;5093396;28;20066;-73
2022/03/11 02:03:45;;;;;;;15.60;8.05;;;3.80;99.90;;;;;;5092246;28;20484;-73
2022/03/11 02:06:13;;;;;;;15.38;8.18;;;3.80;99.90;;;;;;5092095;28;20086;-73
2022/03/11 02:08:40;;;;;;;17.38;8.15;;;3.70;99.90;;;;;;5093215;28;20051;-73
2022/03/11 02:11:06;;;;;;;14.35;8.43;;;3.70;99.90;;;;;;5093020;28;20055;-73
2022/03/11 02:13:49;;;;;;;13.75;8.50;;;3.70;99.90;;;;;;5092942;28;20408;-73
2022/03/11 02:16:17;;;;;;;14.20;8.05;;;3.70;99.90;;;;;;5091938;28;20048;-73
2022/03/11 02:18:43;;;;;;;17.13;8.93;;;3.70;99.90;;;;;;5092189;28;20101;-73
2022/03/11 02:21:09;;;;;;;16.48;8.57;;;3.60;99.90;;;;;;5096894;28;20036;-73
2022/03/11 02:23:42;;;;;;;16.83;8.93;;;3.70;99.90;;;;;;5096526;28;20569;-73
2022/03/11 02:26:08;;;;;;;14.60;8.27;;;3.70;99.90;;;;;;5078982;28;20297;-73
2022/03/11 02:28:33;;;;;;;18.50;8.88;;;3.60;99.90;;;;;;5078576;28;20040;-73
2022/03/11 02:30:59;;;;;;;16.35;8.85;;;3.60;99.90;;;;;;5078428;28;20086;-73
2022/03/11 02:33:25;;;;;;;19.13;9.43;;;3.60;99.90;;;;;;5096624;28;20097;-73
2022/03/11 02:35:50;;;;;;;17.67;8.65;;;3.50;99.90;;;;;;5095639;28;20496;-73
2022/03/11 02:38:16;;;;;;;17.08;9.07;;;3.60;99.90;;;;;;5096424;28;20097;-74
2022/03/11 02:40:41;;;;;;;17.75;9.32;;;3.50;99.90;;;;;;5095353;28;20051;-74
2022/03/11 02:43:07;;;;;;;18.77;9.75;;;3.50;99.90;;;;;;5096344;28;20044;-73
2022/03/11 02:45:32;;;;;;;21.10;10.50;;;3.50;99.90;;;;;;5096263;28;20045;-73
2022/03/11 02:47:58;;;;;;;14.65;9.32;;;3.50;99.90;;;;;;5095928;28;20484;-74
2022/03/11 02:50:23;;;;;;;15.32;9.45;;;3.50;99.90;;;;;;5096330;28;20048;-74
2022/03/11 02:52:49;;;;;;;22.05;10.02;;;3.40;99.90;;;;;;5094685;28;20051;-73
2022/03/11 02:55:15;;;;;;;16.90;9.98;;;3.40;99.90;;;;;;5096420;28;20047;-73
2022/03/11 02:57:40;;;;;;;18.00;9.90;;;3.40;99.90;;;;;;5096352;28;20047;-73
2022/03/11 03:00:06;;;;;;;30.52;10.95;;;3.40;99.90;;;;;;5095977;28;20077;-73
2022/03/11 03:02:32;;;;;;;18.05;10.27;;;3.30;99.90;;;;;;5096064;28;20044;-74
2022/03/11 03:04:58;;;;;;;16.73;9.73;;;3.30;99.90;;;;;;5096010;28;20052;-73
2022/03/11 03:07:23;;;;;;;16.95;9.93;;;3.20;99.90;;;;;;5095095;28;20050;-73
2022/03/11 03:09:49;;;;;;;18.83;10.05;;;3.20;99.90;;;;;;5095855;28;20550;-73
2022/03/11 03:12:14;;;;;;;18.00;9.98;;;3.30;99.90;;;;;;5095779;28;20128;-73
2022/03/11 03:14:40;;;;;;;19.00;10.40;;;3.20;99.90;;;;;;5096199;28;20358;-73
2022/03/11 03:17:07;;;;;;;19.15;10.82;;;3.10;99.90;;;;;;5095828;28;20044;-73
2022/03/11 03:19:35;;;;;;;21.35;10.90;;;3.00;99.90;;;;;;5095734;28;20127;-74
2022/03/11 03:22:01;;;;;;;18.73;11.45;;;3.10;99.90;;;;;;5095696;28;20047;-74
2022/03/11 03:24:27;;;;;;;18.53;10.73;;;3.40;99.90;;;;;;5095677;28;20147;-74
2022/03/11 03:26:55;;;;;;;19.90;10.57;;;3.10;99.90;;;;;;5094650;28;20361;-74
2022/03/11 03:29:20;;;;;;;19.58;11.73;;;3.10;99.90;;;;;;5094565;28;20480;-73
2022/03/11 03:31:46;;;;;;;19.58;10.90;;;3.10;99.90;;;;;;5094758;28;20036;-74
2022/03/11 03:34:11;;;;;;;19.88;11.05;;;3.10;99.90;;;;;;5095487;28;20050;-74
2022/03/11 03:36:37;;;;;;;22.42;11.18;;;3.00;99.90;;;;;;5094703;28;20043;-73
2022/03/11 03:39:02;;;;;;;24.13;12.98;;;3.00;99.90;;;;;;5111275;28;20480;-74
2022/03/11 03:41:28;;;;;;;25.65;11.73;;;3.00;99.90;;;;;;5095431;28;20135;-73
2022/03/11 03:43:53;;;;;;;22.27;11.27;;;3.00;99.90;;;;;;5095165;28;20040;-74
2022/03/11 03:46:19;;;;;;;19.60;12.48;;;3.00;99.90;;;;;;5095286;28;20048;-74
2022/03/11 03:48:44;;;;;;;21.02;11.98;;;3.00;99.90;;;;;;5095157;28;20131;-73
2022/03/11 03:51:10;;;;;;;22.13;12.55;;;2.90;99.90;;;;;;5095072;28;20503;-73
2022/03/11 03:53:36;;;;;;;22.63;11.85;;;2.90;99.90;;;;;;5111188;28;20060;-74
2022/03/11 03:56:01;;;;;;;22.02;11.73;;;2.90;99.90;;;;;;5111070;28;20036;-73
2022/03/11 03:58:27;;;;;;;22.90;12.45;;;2.80;99.90;;;;;;5093844;28;20130;-74
2022/03/11 04:00:52;;;;;;;23.77;12.70;;;2.80;99.90;;;;;;5094893;28;20151;-74
2022/03/11 04:03:18;;;;;;;19.63;12.48;;;2.80;99.90;;;;;;5094904;28;20039;-73
2022/03/11 04:05:43;;;;;;;25.10;12.98;;;2.80;99.90;;;;;;5094881;28;20079;-73
2022/03/11 04:08:09;;;;;;;24.55;13.77;;;2.80;99.90;;;;;;5110799;28;20043;-74
2022/03/11 04:10:35;;;;;;;26.05;12.95;;;2.70;99.90;;;;;;5093539;28;20431;-74
2022/03/11 04:13:01;;;;;;;22.90;12.23;;;2.70;99.90;;;;;;5094530;28;20051;-74
2022/03/11 04:15:26;;;;;;;23.02;13.02;;;2.60;99.90;;;;;;5094321;28;20415;-74
2022/03/11 04:17:52;;;;;;;22.80;12.65;;;2.60;99.90;;;;;;5094648;28;20047;-74
2022/03/11 04:20:18;;;;;;;23.77;12.73;;;2.60;99.90;;;;;;5094928;28;20468;-74
2022/03/11 04:22:45;;;;;;;24.45;12.43;;;2.50;99.90;;;;;;5093431;28;20038;-74
2022/03/11 04:25:11;;;;;;;24.92;13.85;;;2.50;99.90;;;;;;5094521;28;20058;-74
2022/03/11 04:27:38;;;;;;;25.73;13.43;;;2.50;99.90;;;;;;5094439;28;20048;-74
2022/03/11 04:30:04;;;;;;;24.17;13.27;;;2.50;99.90;;;;;;5094321;28;20044;-74
2022/03/11 04:32:30;;;;;;;25.25;13.35;;;2.40;99.90;;;;;;5094149;28;20298;-74
2022/03/11 04:34:55;;;;;;;24.65;13.02;;;2.40;99.90;;;;;;5094272;28;20178;-73
2022/03/11 04:37:21;;;;;;;24.65;13.73;;;2.40;99.90;;;;;;5094401;28;20617;-74
2022/03/11 04:39:47;;;;;;;28.70;15.15;;;2.30;99.90;;;;;;5094227;28;20051;-74
2022/03/11 04:42:12;;;;;;;32.33;14.20;;;2.30;99.90;;;;;;5109492;28;20134;-74
2022/03/11 04:44:38;;;;;;;24.27;13.55;;;2.30;99.90;;;;;;5092646;28;20045;-74
2022/03/11 04:47:04;;;;;;;29.05;14.82;;;2.30;99.90;;;;;;5094042;28;20040;-74
2022/03/11 04:49:30;;;;;;;25.37;13.40;;;2.30;99.90;;;;;;5093237;28;20134;-73
2022/03/11 04:51:56;;;;;;;28.17;14.77;;;2.30;99.90;;;;;;5092781;28;20040;-74
2022/03/11 04:54:21;;;;;;;26.10;14.68;;;2.20;99.90;;;;;;5093960;28;20047;-74
2022/03/11 04:56:47;;;;;;;27.85;14.90;;;2.20;99.90;;;;;;5093989;28;20044;-73
2022/03/11 04:59:13;;;;;;;28.90;15.07;;;2.20;99.90;;;;;;5093853;28;20056;-74
2022/03/11 05:01:38;;;;;;;24.48;13.05;;;2.20;99.90;;;;;;5093911;28;20132;-74
2022/03/11 05:04:04;;;;;;;29.42;15.50;;;2.10;99.90;;;;;;5109830;28;20050;-74
2022/03/11 05:06:30;;;;;;;26.25;14.40;;;2.10;99.90;;;;;;5093834;28;20047;-74
2022/03/11 05:08:55;;;;;;;29.23;14.95;;;2.20;99.90;;;;;;5093799;28;20048;-74
2022/03/11 05:11:22;;;;;;;23.55;13.68;;;2.10;99.90;;;;;;5093676;28;20488;-74
2022/03/11 05:13:47;;;;;;;29.08;14.95;;;2.10;99.90;;;;;;5093386;28;20064;-74
2022/03/11 05:16:13;;;;;;;26.30;14.73;;;2.10;99.90;;;;;;5093700;28;20055;-73
2022/03/11 05:18:39;;;;;;;31.58;14.55;;;2.00;99.90;;;;;;5093623;28;20093;-73
2022/03/11 05:21:04;;;;;;;25.13;14.15;;;2.00;99.90;;;;;;5093679;28;20043;-73
2022/03/11 05:23:30;;;;;;;26.52;14.85;;;2.00;99.90;;;;;;5093645;28;20388;-74
2022/03/11 05:25:55;;;;;;;28.83;15.63;;;2.00;99.90;;;;;;5093756;28;20059;-73
2022/03/11 05:28:21;;;;;;;27.45;14.35;;;2.00;99.90;;;;;;5093508;28;20542;-73
2022/03/11 05:30:47;;;;;;;28.98;15.20;;;2.00;99.90;;;;;;5109270;28;20048;-74
2022/03/11 05:33:12;;;;;;;26.38;14.68;;;2.00;99.90;;;;;;5092433;28;20076;-73
2022/03/11 05:35:38;;;;;;;28.80;14.35;;;2.00;99.90;;;;;;5093572;28;20051;-73
2022/03/11 05:38:04;;;;;;;26.77;14.38;;;;;;;;;;5093910;28;20035;-73
2022/03/11 05:40:29;;;;;;;27.27;14.85;;;1.90;99.90;;;;;;5092645;28;20047;-73
2022/03/11 05:42:55;;;;;;;29.40;15.35;;;1.90;99.90;;;;;;5092797;28;20048;-74
2022/03/11 05:45:21;;;;;;;32.60;13.57;;;1.90;99.90;;;;;;5093591;28;20477;-74
2022/03/11 05:47:46;;;;;;;27.77;15.38;;;1.90;99.90;;;;;;5093219;28;20131;-74
2022/03/11 05:50:12;;;;;;;26.17;14.45;;;1.80;99.90;;;;;;5092268;28;20044;-74
2022/03/11 05:52:39;;;;;;;29.45;15.00;;;1.80;99.90;;;;;;5093437;28;20131;-73
2022/03/11 05:55:05;;;;;;;;;;;1.80;99.90;;;;;;5096882;28;20048;-73
2022/03/11 05:57:31;;;;;;;25.15;14.32;;;1.80;99.90;;;;;;5096294;28;19920;-74
2022/03/11 05:59:57;;;;;;;28.38;15.15;;;1.80;99.90;;;;;;5097405;28;20055;-75
2022/03/11 06:02:22;;;;;;;26.50;14.63;;;1.80;99.90;;;;;;5097325;28;20040;-74
2022/03/11 06:04:48;;;;;;;24.40;14.35;;;1.80;99.90;;;;;;5097347;28;20181;-73
2022/03/11 06:07:13;;;;;;;23.20;13.18;;;1.70;99.90;;;;;;5097239;28;20036;-73
2022/03/11 06:09:39;;;;;;;27.70;15.48;;;1.80;99.90;;;;;;5096976;28;20040;-73
2022/03/11 06:12:05;;;;;;;25.30;13.85;;;1.70;99.90;;;;;;5113129;28;20044;-73
2022/03/11 06:14:31;;;;;;;26.85;14.95;;;1.70;99.90;;;;;;5097501;28;20056;-73
2022/03/11 06:16:57;;;;;;;30.88;15.80;;;1.90;99.90;;;;;;5097076;28;20131;-73
2022/03/11 06:19:22;;;;;;;28.90;13.48;;;1.70;99.90;;;;;;5096919;28;20419;-73
2022/03/11 06:21:48;;;;;;;32.85;14.45;;;1.70;99.90;;;;;;5096986;28;20076;-74
2022/03/11 06:24:14;;;;;;;31.40;14.80;;;1.60;99.90;;;;;;5096964;28;20046;-73
2022/03/11 06:26:41;;;;;;;28.20;14.07;;;1.70;99.90;;;;;;5097063;28;20430;-72
2022/03/11 06:29:07;;;;;;;27.60;14.45;;;1.70;99.90;;;;;;5096758;28;20052;-74
2022/03/11 06:31:35;;;;;;;30.20;14.15;;;1.70;99.90;;;;;;5097466;28;20048;-74
2022/03/11 06:34:01;;;;;;;25.95;15.18;;;1.70;99.90;;;;;;5097089;28;20048;-76
2022/03/11 06:36:28;;;;;;;26.20;14.63;;;1.70;99.90;;;;;;5096681;28;20397;-74
2022/03/11 06:38:56;;;;;;;25.48;14.50;;;1.80;99.90;;;;;;5112133;28;20147;-74
2022/03/11 06:41:22;;;;;;;27.13;15.07;;;1.80;99.90;;;;;;5096546;28;20422;-74
2022/03/11 06:43:51;;;;;;;27.20;14.93;;;1.80;99.90;;;;;;5096244;28;20048;-75
2022/03/11 06:46:17;;;;;;;28.40;13.95;;;1.80;99.90;;;;;;5096260;28;20480;-74
2022/03/11 06:48:43;;;;;;;28.30;13.90;;;1.80;99.90;;;;;;5096481;28;20123;-73
2022/03/11 06:51:08;;;;;;;25.42;13.88;;;1.80;99.90;;;;;;5096386;28;20135;-73
2022/03/11 06:53:37;;;;;;;24.90;13.95;;;1.90;99.90;;;;;;5096331;28;20480;-75
2022/03/11 06:56:04;;;;;;;25.05;13.25;;;2.70;99.90;;;;;;5096443;28;20407;-72
2022/03/11 06:58:30;;;;;;;34.03;14.95;;;2.00;99.90;;;;;;5096184;28;20052;-73
2022/03/11 07:00:56;;;;;;;24.58;14.18;;;2.10;99.90;;;;;;5096087;28;20130;-73
2022/03/11 07:03:21;;;;;;;26.85;14.00;;;2.10;99.90;;;;;;5096029;28;20146;-72
2022/03/11 07:05:47;;;;;;;25.73;14.00;;;2.20;99.90;;;;;;5095411;28;20434;-73
2022/03/11 07:08:14;;;;;;;22.70;13.00;;;2.20;99.90;;;;;;5112144;28;20040;-73
2022/03/11 07:10:39;;;;;;;23.25;14.10;;;2.20;99.90;;;;;;5095781;28;20101;-73
2022/03/11 07:13:05;;;;;;;26.77;13.88;;;2.30;99.90;;;;;;5095476;28;20055;-73
2022/03/11 07:15:31;;;;;;;24.67;14.73;;;2.30;99.90;;;;;;5095976;28;20055;-73
2022/03/11 07:17:56;;;;;;;28.75;14.55;;;2.40;99.90;;;;;;5095893;28;20044;-74
2022/03/11 07:20:22;;;;;;;29.00;15.30;;;2.40;99.90;;;;;;5095916;28;20051;-73
2022/03/11 07:22:48;;;;;;;28.05;13.05;;;2.50;99.90;;;;;;5095746;28;20036;-72
2022/03/11 07:25:17;;;;;;;28.92;14.00;;;2.50;99.90;;;;;;5095811;28;20411;-74
2022/03/11 07:27:45;;;;;;;27.25;14.88;;;2.60;99.90;;;;;;5095589;28;20471;-73
2022/03/11 07:30:11;;;;;;;27.85;14.15;;;2.70;99.90;;;;;;5095570;28;20048;-73
2022/03/11 07:32:41;;;;;;;25.63;13.43;;;2.80;99.90;;;;;;5095581;28;20400;-73
2022/03/11 07:35:12;;;;;;;23.13;12.90;;;2.90;99.90;;;;;;5095504;28;20040;-73
2022/03/11 07:37:40;;;;;;;25.20;13.18;;;3.00;99.90;;;;;;5094215;28;20054;-76
2022/03/11 07:40:06;;;;;;;25.63;14.15;;;3.10;99.90;;;;;;5095458;28;20066;-73
2022/03/11 07:42:32;;;;;;;27.83;14.38;;;3.20;99.90;;;;;;5095745;28;20115;-72
2022/03/11 07:44:58;;;;;;;28.05;14.60;;;3.30;99.90;;;;;;5095253;28;20083;-72
2022/03/11 07:47:23;;;;;;;26.48;15.05;;;3.40;99.90;;;;;;5095246;28;20474;-75
2022/03/11 07:49:51;;;;;;;29.33;13.90;;;3.50;99.90;;;;;;5095338;28;20070;-74
2022/03/11 07:52:17;;;;;;;24.60;14.38;;;3.60;99.90;;;;;;5095129;28;20082;-74
2022/03/11 07:54:43;;;;;;;22.38;13.85;;;3.80;99.90;;;;;;5095147;28;20044;-74
2022/03/11 07:57:09;;;;;;;27.15;14.18;;;3.80;99.90;;;;;;5094153;28;20044;-73
2022/03/11 07:59:36;;;;;;;24.77;13.73;;;3.90;99.90;;;;;;5095715;28;20047;-72
2022/03/11 08:02:06;;;;;;;26.67;14.27;;;4.00;99.90;;;;;;5095110;28;20048;-74
2022/03/11 08:04:32;;;;;;;27.05;14.02;;;4.10;99.90;;;;;;5094929;28;20059;-73
2022/03/11 08:07:06;;;;;;;23.90;13.77;;;4.20;99.90;;;;;;5095024;28;20050;-72
2022/03/11 08:09:33;;;;;;;24.92;13.25;;;4.30;99.90;;;;;;5094840;28;20044;-74
2022/03/11 08:11:59;;;;;;;24.85;14.23;;;4.40;99.90;;;;;;5093401;28;20480;-73
2022/03/11 08:14:24;;;;;;;26.02;13.75;;;4.50;99.90;;;;;;5095331;28;20105;-73
2022/03/11 08:16:50;;;;;;;26.00;14.02;;;4.50;99.90;;;;;;5093977;28;20087;-72
2022/03/11 08:19:15;;;;;;;27.95;14.10;;;4.70;99.90;;;;;;5094702;28;20403;-73
2022/03/11 08:21:41;;;;;;;25.95;13.98;;;4.80;99.90;;;;;;5094684;28;20055;-73
2022/03/11 08:24:07;;;;;;;26.45;14.32;;;4.80;99.90;;;;;;5093575;28;20051;-73
2022/03/11 08:26:32;;;;;;;26.08;14.57;;;4.90;99.90;;;;;;5095037;28;20048;-76
2022/03/11 08:28:58;;;;;;;24.40;14.00;;;4.90;99.90;;;;;;5107426;28;20044;-75
2022/03/11 08:31:24;;;;;;;24.15;14.27;;;5.00;99.90;;;;;;5108921;28;20396;-73
2022/03/11 08:33:49;;;;;;;30.08;15.50;;;5.10;99.90;;;;;;5093508;28;20044;-73
2022/03/11 08:36:15;;;;;;;28.55;15.27;;;5.10;99.90;;;;;;5075878;28;20109;-73
2022/03/11 08:38:41;;;;;;;23.77;13.55;;;5.20;99.90;;;;;;5093584;28;20054;-72
2022/03/11 08:41:10;;;;;;;26.20;14.65;;;5.30;99.90;;;;;;5076202;28;20051;-74
2022/03/11 08:43:38;;;;;;;24.67;14.13;;;5.40;99.90;;;;;;5109560;28;20098;-73
2022/03/11 08:46:07;;;;;;;22.80;13.82;;;5.50;99.90;;;;;;5093900;28;20377;-74
2022/03/11 08:48:34;;;;;;;28.35;14.23;;;5.60;99.90;;;;;;5093692;28;20083;-73
2022/03/11 08:50:59;;;;;;;23.23;13.68;;;5.80;99.90;;;;;;5092796;28;20059;-74
2022/03/11 08:53:25;;;;;;;25.27;12.93;;;5.90;99.90;;;;;;5092071;28;20047;-74
2022/03/11 08:55:51;;;;;;;24.85;13.60;;;6.00;99.90;;;;;;5109590;28;20476;-74
2022/03/11 08:58:16;;;;;;;25.02;14.43;;;6.00;99.90;;;;;;5093271;28;20090;-74
2022/03/11 09:00:42;;;;;;;24.58;13.82;;;6.10;99.90;;;;;;5109538;28;20051;-75
2022/03/11 09:03:08;;;;;;;22.83;13.00;;;6.20;99.90;;;;;;5092143;28;20101;-73
2022/03/11 09:05:34;;;;;;;21.42;13.38;;;6.30;99.90;;;;;;5109420;28;20044;-74
2022/03/11 09:08:00;;;;;;;22.25;13.80;;;6.30;99.90;;;;;;5092334;28;20086;-74
2022/03/11 09:10:25;;;;;;;24.98;13.15;;;6.40;99.90;;;;;;5090039;28;20050;-76
2022/03/11 09:12:51;;;;;;;23.80;14.80;;;6.50;99.90;;;;;;5090876;28;20048;-76
2022/03/11 09:15:17;;;;;;;22.63;13.20;;;6.50;99.90;;;;;;5075772;28;20093;-74
2022/03/11 09:17:45;;;;;;;26.95;14.43;;;6.50;99.90;;;;;;5092924;28;20135;-74
2022/03/11 09:20:12;;;;;;;24.00;13.90;;;6.60;99.90;;;;;;5092698;28;20051;-76
2022/03/11 09:22:39;;;;;;;21.27;13.55;;;6.60;99.90;;;;;;5093692;28;20139;-75
2022/03/11 09:25:07;;;;;;;21.75;13.63;;;6.70;99.90;;;;;;5092840;28;20122;-74
2022/03/11 09:27:33;;;;;;;27.70;14.45;;;6.80;99.90;;;;;;5094118;28;20062;-75
2022/03/11 09:29:59;;;;;;;22.60;13.20;;;6.90;99.90;;;;;;5097958;28;20395;-75
2022/03/11 09:32:25;;;;;;;25.35;14.13;;;7.00;99.90;;;;;;5097934;28;20294;-75
2022/03/11 09:34:52;;;;;;;22.50;13.65;;;7.00;99.90;;;;;;5097739;28;20119;-75
2022/03/11 09:37:18;;;;;;;21.00;13.35;;;7.00;99.90;;;;;;5096860;28;20048;-75
2022/03/11 09:39:43;;;;;;;25.02;13.25;;;7.10;99.90;;;;;;5098272;28;20047;-75
2022/03/11 09:42:10;;;;;;;28.38;13.75;;;7.20;99.90;;;;;;5097727;28;20122;-75
2022/03/11 09:44:39;;;;;;;21.30;12.57;;;7.10;99.90;;;;;;5096847;28;20520;-75
2022/03/11 09:47:05;;;;;;;22.63;13.98;;;7.20;99.90;;;;;;5097742;28;20036;-75
2022/03/11 09:49:35;;;;;;;24.23;14.60;;;7.20;99.90;;;;;;5097692;28;20047;-74
2022/03/11 09:52:07;;;;;;;23.88;14.00;;;7.20;99.90;;;;;;5097274;28;20347;-75
2022/03/11 09:54:34;;;;;;;21.88;13.18;;;7.30;99.90;;;;;;5097501;28;20442;-74
2022/03/11 09:57:00;;;;;;;23.05;12.50;;;7.50;99.90;;;;;;5097471;28;20168;-75
2022/03/11 09:59:26;;;;;;;23.13;13.37;;;7.60;99.90;;;;;;5096308;28;20063;-73
2022/03/11 10:01:53;;;;;;;27.52;12.90;;;7.70;99.90;;;;;;5097354;28;20278;-74
2022/03/11 10:04:19;;;;;;;24.48;13.85;;;7.80;99.90;;;;;;5097068;28;20511;-74
2022/03/11 10:06:47;;;;;;;25.45;13.52;;;7.90;99.90;;;;;;5097314;28;20048;-74
2022/03/11 10:09:18;;;;;;;24.10;13.18;;;8.00;99.90;;;;;;5097257;28;20050;-74
2022/03/11 10:11:56;;;;;;;19.88;12.88;;;8.20;99.90;;;;;;5096057;28;20047;-74
2022/03/11 10:14:32;;;;;;;19.70;12.40;;;8.20;99.90;;;;;;5097048;28;20052;-74
2022/03/11 10:16:59;;;;;;;24.98;13.45;;;8.20;99.40;;;;;;5095279;28;20484;-72
2022/03/11 10:19:25;;;;;;;21.15;12.10;;;8.20;99.90;;;;;;5097086;28;20051;-73
2022/03/11 10:21:51;;;;;;;20.80;12.68;;;8.40;99.70;;;;;;5097627;28;20040;-74
2022/03/11 10:24:19;;;;;;;28.27;13.80;;;8.50;99.60;;;;;;5097040;28;20150;-74
2022/03/11 10:26:53;;;;;;;24.73;12.77;;;8.50;99.60;;;;;;5096892;28;20070;-74
2022/03/11 10:29:24;;;;;;;21.08;12.68;;;8.60;99.90;;;;;;5096934;28;20055;-73
2022/03/11 10:31:51;;;;;;;19.63;12.93;;;8.70;99.50;;;;;;5096714;28;20058;-75
2022/03/11 10:34:19;;;;;;;21.67;12.52;;;8.70;98.30;;;;;;5096755;28;20048;-75
2022/03/11 10:36:47;;;;;;;19.98;12.65;;;8.70;98.60;;;;;;5095824;28;20048;-72
2022/03/11 10:39:27;;;;;;;22.65;12.93;;;8.80;97.60;;;;;;5100113;28;20055;-74
2022/03/11 10:41:55;;;;;;;21.50;13.65;;;8.70;97.40;;;;;;5095462;28;20499;-74
2022/03/11 10:44:23;;;;;;;22.73;12.80;;;8.80;97.90;;;;;;5095634;28;20052;-74
2022/03/11 10:46:49;;;;;;;22.67;13.45;;;8.90;97.10;;;;;;5100657;28;20048;-73
2022/03/11 10:49:33;;;;;;;18.37;12.00;;;9.00;97.00;;;;;;5100973;28;20040;-74
2022/03/11 10:52:01;;;;;;;19.60;12.45;;;9.00;96.50;;;;;;5104524;28;20039;-74
2022/03/11 10:54:28;;;;;;;22.05;11.73;;;9.00;96.60;;;;;;5095704;28;20113;-74
2022/03/11 10:56:55;;;;;;;21.40;12.38;;;9.10;95.60;;;;;;5096746;28;20040;-74
2022/03/11 10:59:21;;;;;;;24.70;13.13;;;9.20;95.90;;;;;;5096817;28;20131;-74
2022/03/11 11:01:47;;;;;;;19.88;12.48;;;9.30;95.60;;;;;;5096558;28;20476;-74
2022/03/11 11:04:15;;;;;;;22.45;12.60;;;9.40;95.70;;;;;;5096213;28;20495;-74
2022/03/11 11:06:41;;;;;;;20.17;12.55;;;9.60;96.10;;;;;;5096456;28;20048;-75
2022/03/11 11:09:08;;;;;;;20.17;12.70;;;9.70;95.30;;;;;;5096381;28;20051;-74
2022/03/11 11:11:34;;;;;;;21.70;12.13;;;9.60;94.50;;;;;;5094975;28;20302;-75
2022/03/11 11:14:06;;;;;;;20.02;12.23;;;9.70;94.40;;;;;;5095895;28;20134;-75
2022/03/11 11:16:39;;;;;;;21.48;12.88;;;9.80;94.80;;;;;;5096401;28;20052;-74
2022/03/11 11:19:10;;;;;;;19.55;11.82;;;9.90;94.50;;;;;;5096348;28;20210;-74
2022/03/11 11:21:39;;;;;;;18.17;11.70;;;10.10;93.40;;;;;;5095958;28;20040;-74
2022/03/11 11:24:34;;;;;;;20.00;12.43;;;10.20;93.80;;;;;;5094569;28;20093;-74
2022/03/11 11:27:01;;;;;;;16.83;10.52;;;10.30;93.80;;;;;;5091781;28;20060;-75
2022/03/11 11:29:29;;;;;;;21.27;11.88;;;10.50;93.00;;;;;;5094503;28;20395;-74
2022/03/11 11:31:56;;;;;;;19.40;12.07;;;10.60;93.20;;;;;;5095813;28;20125;-75
2022/03/11 11:34:33;;;;;;;20.30;11.20;;;10.70;92.30;;;;;;5077718;28;20089;-73
2022/03/11 11:37:00;;;;;;;;;;;10.80;92.30;;;;;;5096057;28;20499;-74
2022/03/11 11:39:34;;;;;;;18.70;10.82;;;10.90;91.90;;;;;;5096096;28;19930;-74
2022/03/11 11:42:06;;;;;;;18.35;11.40;;;10.90;90.00;;;;;;5095781;28;20036;-75
2022/03/11 11:44:42;;;;;;;16.23;10.48;;;11.10;90.80;;;;;;5095637;28;20085;-73
2022/03/11 11:47:31;;;;;;;18.50;10.77;;;11.10;89.50;;;;;;5095891;28;20044;-75
2022/03/11 11:49:57;;;;;;;17.10;11.23;;;11.10;90.40;;;;;;5095419;28;20169;-74
2022/03/11 11:52:33;;;;;;;19.48;11.23;;;11.10;88.70;;;;;;5095520;28;20477;-75
2022/03/11 11:55:19;;;;;;;18.58;10.90;;;11.20;90.30;;;;;;5095316;28;20059;-75
2022/03/11 11:57:46;;;;;;;19.88;11.25;;;11.20;88.30;;;;;;5095211;28;20047;-74
2022/03/11 12:00:27;;;;;;;19.23;11.15;;;11.30;87.40;;;;;;5095204;28;20040;-73
2022/03/11 12:02:53;;;;;;;24.98;11.23;;;11.40;90.00;;;;;;5093001;28;20040;-75
2022/03/11 12:05:39;;;;;;;18.63;11.13;;;11.40;87.00;;;;;;5093871;28;20040;-73
2022/03/11 12:08:05;;;;;;;18.20;10.50;;;11.50;88.00;;;;;;5077472;28;20053;-74
2022/03/11 12:10:31;;;;;;;16.17;10.43;;;11.50;86.30;;;;;;5072580;28;20071;-73
2022/03/11 12:12:59;;;;;;;22.17;10.77;;;11.50;86.40;;;;;;5089941;28;20484;-74
2022/03/11 12:15:27;;;;;;;17.35;10.90;;;11.60;86.00;;;;;;5094605;28;20091;-73
2022/03/11 12:17:59;;;;;;;16.73;11.02;;;11.60;86.30;;;;;;5092333;28;20040;-74
2022/03/11 12:20:36;;;;;;;15.52;10.05;;;11.80;87.10;;;;;;5076220;28;20400;-73
2022/03/11 12:23:14;;;;;;;16.70;10.50;;;11.90;86.00;;;;;;5084959;28;20393;-75
2022/03/11 12:25:49;;;;;;;17.27;10.35;;;11.90;86.20;;;;;;5074570;28;20374;-74
2022/03/11 12:28:31;;;;;;;17.83;11.05;;;12.00;84.20;;;;;;5074129;28;20093;-73
2022/03/11 12:31:02;;;;;;;15.57;9.95;;;12.00;84.20;;;;;;5073180;28;20072;-74
2022/03/11 12:33:38;;;;;;;15.43;10.52;;;12.10;83.90;;;;;;5072213;28;20540;-74
2022/03/11 12:36:27;;;;;;;18.85;11.10;;;12.10;84.80;;;;;;5072666;28;20493;-74
2022/03/11 12:38:53;;;;;;;19.27;10.60;;;12.00;85.70;;;;;;5073894;28;20045;-73
2022/03/11 12:41:24;;;;;;;19.67;10.20;;;12.20;84.40;;;;;;5072837;28;20377;-74